sensor_id;sensor_type;location;lat;lon;timestamp;P1;durP1;ratioP1;P2;durP2;ratioP2
77866;SDS011;67271;59.120;37.970;2023-10-13T00:03:21;2.03;;;1.35;;
77866;SDS011;67271;59.120;37.970;2023-10-13T00:05:47;5.82;;;1.27;;
77866;SDS011;67271;59.120;37.970;2023-10-13T00:08:13;4.38;;;1.05;;
77866;SDS011;67271;59.120;37.970;2023-10-13T00:10:39;1.80;;;1.00;;
77866;SDS011;67271;59.120;37.970;2023-10-13T00:13:05;1.33;;;0.57;;
77866;SDS011;67271;59.120;37.970;2023-10-13T00:15:51;1.52;;;0.70;;
77866;SDS011;67271;59.120;37.970;2023-10-13T00:18:24;0.47;;;0.47;;
77866;SDS011;67271;59.120;37.970;2023-10-13T00:21:07;4.15;;;0.93;;
77866;SDS011;67271;59.120;37.970;2023-10-13T00:23:45;4.72;;;1.30;;
77866;SDS011;67271;59.120;37.970;2023-10-13T00:26:24;0.57;;;0.57;;
77866;SDS011;67271;59.120;37.970;2023-10-13T00:28:58;3.67;;;1.40;;
77866;SDS011;67271;59.120;37.970;2023-10-13T00:31:33;3.30;;;0.98;;
77866;SDS011;67271;59.120;37.970;2023-10-13T00:34:01;4.00;;;1.00;;
77866;SDS011;67271;59.120;37.970;2023-10-13T00:36:40;0.75;;;0.50;;
77866;SDS011;67271;59.120;37.970;2023-10-13T00:39:14;4.68;;;1.08;;
77866;SDS011;67271;59.120;37.970;2023-10-13T00:41:42;1.63;;;0.77;;
77866;SDS011;67271;59.120;37.970;2023-10-13T00:44:18;5.00;;;0.85;;
77866;SDS011;67271;59.120;37.970;2023-10-13T00:46:57;4.05;;;1.00;;
77866;SDS011;67271;59.120;37.970;2023-10-13T00:49:23;3.03;;;1.42;;
77866;SDS011;67271;59.120;37.970;2023-10-13T00:51:50;1.08;;;0.95;;
77866;SDS011;67271;59.120;37.970;2023-10-13T00:54:17;2.80;;;0.98;;
77866;SDS011;67271;59.120;37.970;2023-10-13T00:56:52;1.00;;;0.90;;
77866;SDS011;67271;59.120;37.970;2023-10-13T00:59:30;3.05;;;1.08;;
77866;SDS011;67271;59.120;37.970;2023-10-13T01:02:04;2.60;;;1.05;;
77866;SDS011;67271;59.120;37.970;2023-10-13T01:04:48;1.08;;;0.80;;
77866;SDS011;67271;59.120;37.970;2023-10-13T01:07:15;0.85;;;0.30;;
77866;SDS011;67271;59.120;37.970;2023-10-13T01:09:47;2.45;;;0.93;;
77866;SDS011;67271;59.120;37.970;2023-10-13T01:12:13;0.63;;;0.57;;
77866;SDS011;67271;59.120;37.970;2023-10-13T01:14:40;2.40;;;0.80;;
77866;SDS011;67271;59.120;37.970;2023-10-13T01:17:06;1.45;;;1.20;;
77866;SDS011;67271;59.120;37.970;2023-10-13T01:19:35;1.52;;;0.35;;
77866;SDS011;67271;59.120;37.970;2023-10-13T01:22:10;2.92;;;0.88;;
77866;SDS011;67271;59.120;37.970;2023-10-13T01:24:37;2.53;;;0.63;;
77866;SDS011;67271;59.120;37.970;2023-10-13T01:27:06;3.35;;;1.17;;
77866;SDS011;67271;59.120;37.970;2023-10-13T01:29:46;1.52;;;0.73;;
77866;SDS011;67271;59.120;37.970;2023-10-13T01:32:17;10.15;;;1.40;;
77866;SDS011;67271;59.120;37.970;2023-10-13T01:34:44;2.58;;;0.93;;
77866;SDS011;67271;59.120;37.970;2023-10-13T01:37:12;1.08;;;0.90;;
77866;SDS011;67271;59.120;37.970;2023-10-13T01:39:38;2.13;;;0.80;;
77866;SDS011;67271;59.120;37.970;2023-10-13T01:42:04;6.90;;;1.00;;
77866;SDS011;67271;59.120;37.970;2023-10-13T01:44:31;3.38;;;0.80;;
77866;SDS011;67271;59.120;37.970;2023-10-13T01:46:58;2.35;;;1.88;;
77866;SDS011;67271;59.120;37.970;2023-10-13T01:49:25;1.98;;;0.88;;
77866;SDS011;67271;59.120;37.970;2023-10-13T01:51:51;1.45;;;0.88;;
77866;SDS011;67271;59.120;37.970;2023-10-13T01:54:17;1.85;;;1.13;;
77866;SDS011;67271;59.120;37.970;2023-10-13T01:56:44;4.78;;;0.90;;
77866;SDS011;67271;59.120;37.970;2023-10-13T01:59:10;1.17;;;0.43;;
77866;SDS011;67271;59.120;37.970;2023-10-13T02:01:37;1.40;;;0.93;;
77866;SDS011;67271;59.120;37.970;2023-10-13T02:04:05;0.40;;;0.40;;
77866;SDS011;67271;59.120;37.970;2023-10-13T02:06:32;2.50;;;1.20;;
77866;SDS011;67271;59.120;37.970;2023-10-13T02:09:10;0.63;;;0.40;;
77866;SDS011;67271;59.120;37.970;2023-10-13T02:11:42;0.93;;;0.50;;
77866;SDS011;67271;59.120;37.970;2023-10-13T02:14:11;1.65;;;0.77;;
77866;SDS011;67271;59.120;37.970;2023-10-13T02:16:41;0.30;;;0.30;;
77866;SDS011;67271;59.120;37.970;2023-10-13T02:19:07;0.63;;;0.63;;
77866;SDS011;67271;59.120;37.970;2023-10-13T02:21:34;0.35;;;0.32;;
77866;SDS011;67271;59.120;37.970;2023-10-13T02:24:09;1.00;;;0.68;;
77866;SDS011;67271;59.120;37.970;2023-10-13T02:29:05;1.38;;;0.32;;
77866;SDS011;67271;59.120;37.970;2023-10-13T02:31:40;0.20;;;0.17;;
77866;SDS011;67271;59.120;37.970;2023-10-13T02:34:07;1.73;;;0.65;;
77866;SDS011;67271;59.120;37.970;2023-10-13T02:36:34;4.60;;;0.88;;
77866;SDS011;67271;59.120;37.970;2023-10-13T02:39:20;3.55;;;1.38;;
77866;SDS011;67271;59.120;37.970;2023-10-13T02:41:53;2.15;;;0.80;;
77866;SDS011;67271;59.120;37.970;2023-10-13T02:44:20;2.60;;;0.75;;
77866;SDS011;67271;59.120;37.970;2023-10-13T02:46:56;0.57;;;0.57;;
77866;SDS011;67271;59.120;37.970;2023-10-13T02:49:26;3.65;;;1.90;;
77866;SDS011;67271;59.120;37.970;2023-10-13T02:51:53;3.80;;;0.73;;
77866;SDS011;67271;59.120;37.970;2023-10-13T02:54:24;1.02;;;0.52;;
77866;SDS011;67271;59.120;37.970;2023-10-13T02:56:55;0.50;;;0.50;;
77866;SDS011;67271;59.120;37.970;2023-10-13T02:59:29;4.35;;;0.65;;
77866;SDS011;67271;59.120;37.970;2023-10-13T03:02:06;2.53;;;0.45;;
77866;SDS011;67271;59.120;37.970;2023-10-13T03:04:49;5.90;;;0.77;;
77866;SDS011;67271;59.120;37.970;2023-10-13T03:07:15;2.17;;;0.73;;
77866;SDS011;67271;59.120;37.970;2023-10-13T03:09:48;2.45;;;1.15;;
77866;SDS011;67271;59.120;37.970;2023-10-13T03:14:44;4.78;;;0.82;;
77866;SDS011;67271;59.120;37.970;2023-10-13T03:17:35;1.77;;;0.68;;
77866;SDS011;67271;59.120;37.970;2023-10-13T03:20:02;0.60;;;0.40;;
77866;SDS011;67271;59.120;37.970;2023-10-13T03:22:30;0.30;;;0.30;;
77866;SDS011;67271;59.120;37.970;2023-10-13T03:24:57;2.80;;;0.90;;
77866;SDS011;67271;59.120;37.970;2023-10-13T03:27:30;1.27;;;0.98;;
77866;SDS011;67271;59.120;37.970;2023-10-13T03:30:14;3.83;;;2.28;;
77866;SDS011;67271;59.120;37.970;2023-10-13T03:32:41;1.77;;;0.77;;
77866;SDS011;67271;59.120;37.970;2023-10-13T03:35:20;4.50;;;1.85;;
77866;SDS011;67271;59.120;37.970;2023-10-13T03:37:52;1.10;;;0.57;;
77866;SDS011;67271;59.120;37.970;2023-10-13T03:40:20;1.42;;;0.80;;
77866;SDS011;67271;59.120;37.970;2023-10-13T03:42:53;2.83;;;1.20;;
77866;SDS011;67271;59.120;37.970;2023-10-13T03:45:39;2.75;;;0.82;;
77866;SDS011;67271;59.120;37.970;2023-10-13T03:48:10;11.50;;;1.25;;
77866;SDS011;67271;59.120;37.970;2023-10-13T03:50:54;0.65;;;0.65;;
77866;SDS011;67271;59.120;37.970;2023-10-13T03:53:32;1.60;;;1.00;;
77866;SDS011;67271;59.120;37.970;2023-10-13T03:55:59;3.00;;;1.17;;
77866;SDS011;67271;59.120;37.970;2023-10-13T03:58:37;2.25;;;1.00;;
77866;SDS011;67271;59.120;37.970;2023-10-13T04:01:07;2.85;;;0.95;;
77866;SDS011;67271;59.120;37.970;2023-10-13T04:03:39;0.60;;;0.45;;
77866;SDS011;67271;59.120;37.970;2023-10-13T04:06:23;2.08;;;0.80;;
77866;SDS011;67271;59.120;37.970;2023-10-13T04:09:09;3.95;;;1.35;;
77866;SDS011;67271;59.120;37.970;2023-10-13T04:12:01;4.95;;;0.90;;
77866;SDS011;67271;59.120;37.970;2023-10-13T04:14:29;3.22;;;1.83;;
77866;SDS011;67271;59.120;37.970;2023-10-13T04:17:07;4.22;;;1.23;;
77866;SDS011;67271;59.120;37.970;2023-10-13T04:19:42;1.85;;;1.10;;
77866;SDS011;67271;59.120;37.970;2023-10-13T04:22:35;0.75;;;0.60;;
77866;SDS011;67271;59.120;37.970;2023-10-13T04:25:15;4.05;;;0.98;;
77866;SDS011;67271;59.120;37.970;2023-10-13T04:28:03;0.70;;;0.60;;
77866;SDS011;67271;59.120;37.970;2023-10-13T04:33:26;1.77;;;0.88;;
77866;SDS011;67271;59.120;37.970;2023-10-13T04:36:14;1.02;;;0.55;;
77866;SDS011;67271;59.120;37.970;2023-10-13T04:39:04;3.42;;;0.82;;
77866;SDS011;67271;59.120;37.970;2023-10-13T04:41:31;0.82;;;0.70;;
77866;SDS011;67271;59.120;37.970;2023-10-13T04:44:06;1.05;;;0.40;;
77866;SDS011;67271;59.120;37.970;2023-10-13T04:46:52;0.57;;;0.52;;
77866;SDS011;67271;59.120;37.970;2023-10-13T04:49:25;3.45;;;0.43;;
77866;SDS011;67271;59.120;37.970;2023-10-13T04:52:15;0.98;;;0.88;;
77866;SDS011;67271;59.120;37.970;2023-10-13T04:55:00;1.25;;;1.08;;
77866;SDS011;67271;59.120;37.970;2023-10-13T04:57:35;1.27;;;1.00;;
77866;SDS011;67271;59.120;37.970;2023-10-13T05:00:21;0.70;;;0.70;;
77866;SDS011;67271;59.120;37.970;2023-10-13T05:02:47;4.78;;;0.93;;
77866;SDS011;67271;59.120;37.970;2023-10-13T05:05:25;2.92;;;1.20;;
77866;SDS011;67271;59.120;37.970;2023-10-13T05:07:51;0.73;;;0.68;;
77866;SDS011;67271;59.120;37.970;2023-10-13T05:10:36;3.00;;;1.13;;
77866;SDS011;67271;59.120;37.970;2023-10-13T05:13:21;0.80;;;0.52;;
77866;SDS011;67271;59.120;37.970;2023-10-13T05:16:05;1.45;;;0.60;;
77866;SDS011;67271;59.120;37.970;2023-10-13T05:18:50;1.17;;;0.70;;
77866;SDS011;67271;59.120;37.970;2023-10-13T05:21:34;0.90;;;0.90;;
77866;SDS011;67271;59.120;37.970;2023-10-13T05:24:19;0.82;;;0.60;;
77866;SDS011;67271;59.120;37.970;2023-10-13T05:27:03;1.85;;;1.42;;
77866;SDS011;67271;59.120;37.970;2023-10-13T05:29:48;1.20;;;0.73;;
77866;SDS011;67271;59.120;37.970;2023-10-13T05:32:32;1.20;;;0.65;;
77866;SDS011;67271;59.120;37.970;2023-10-13T05:35:19;0.98;;;0.73;;
77866;SDS011;67271;59.120;37.970;2023-10-13T05:38:04;1.35;;;0.85;;
77866;SDS011;67271;59.120;37.970;2023-10-13T05:40:59;1.30;;;0.85;;
77866;SDS011;67271;59.120;37.970;2023-10-13T05:43:48;3.70;;;1.20;;
77866;SDS011;67271;59.120;37.970;2023-10-13T05:46:33;1.75;;;1.05;;
77866;SDS011;67271;59.120;37.970;2023-10-13T05:49:08;2.08;;;1.20;;
77866;SDS011;67271;59.120;37.970;2023-10-13T05:51:52;3.97;;;1.00;;
77866;SDS011;67271;59.120;37.970;2023-10-13T05:54:18;3.03;;;0.95;;
77866;SDS011;67271;59.120;37.970;2023-10-13T05:56:47;2.50;;;1.02;;
77866;SDS011;67271;59.120;37.970;2023-10-13T05:59:33;1.63;;;0.90;;
77866;SDS011;67271;59.120;37.970;2023-10-13T06:02:20;1.70;;;1.13;;
77866;SDS011;67271;59.120;37.970;2023-10-13T06:05:06;1.50;;;0.73;;
77866;SDS011;67271;59.120;37.970;2023-10-13T06:07:51;1.92;;;1.25;;
77866;SDS011;67271;59.120;37.970;2023-10-13T06:10:36;1.80;;;0.70;;
77866;SDS011;67271;59.120;37.970;2023-10-13T06:13:21;1.33;;;0.75;;
77866;SDS011;67271;59.120;37.970;2023-10-13T06:16:08;1.88;;;0.93;;
77866;SDS011;67271;59.120;37.970;2023-10-13T06:18:57;0.88;;;0.82;;
77866;SDS011;67271;59.120;37.970;2023-10-13T06:21:42;1.27;;;0.80;;
77866;SDS011;67271;59.120;37.970;2023-10-13T06:24:26;1.60;;;0.85;;
77866;SDS011;67271;59.120;37.970;2023-10-13T06:27:10;6.90;;;1.30;;
77866;SDS011;67271;59.120;37.970;2023-10-13T06:29:55;1.17;;;0.80;;
77866;SDS011;67271;59.120;37.970;2023-10-13T06:32:21;1.23;;;0.90;;
77866;SDS011;67271;59.120;37.970;2023-10-13T06:34:52;1.33;;;0.93;;
77866;SDS011;67271;59.120;37.970;2023-10-13T06:37:24;1.50;;;0.75;;
77866;SDS011;67271;59.120;37.970;2023-10-13T06:39:58;5.00;;;1.48;;
77866;SDS011;67271;59.120;37.970;2023-10-13T06:42:31;4.13;;;1.38;;
77866;SDS011;67271;59.120;37.970;2023-10-13T06:45:00;5.28;;;1.63;;
77866;SDS011;67271;59.120;37.970;2023-10-13T06:47:34;7.15;;;1.60;;
77866;SDS011;67271;59.120;37.970;2023-10-13T06:50:09;5.68;;;3.25;;
77866;SDS011;67271;59.120;37.970;2023-10-13T06:52:42;19.10;;;9.25;;
77866;SDS011;67271;59.120;37.970;2023-10-13T06:55:09;22.10;;;9.23;;
77866;SDS011;67271;59.120;37.970;2023-10-13T06:57:49;27.75;;;9.00;;
77866;SDS011;67271;59.120;37.970;2023-10-13T07:00:16;21.20;;;8.70;;
77866;SDS011;67271;59.120;37.970;2023-10-13T07:02:55;13.10;;;6.32;;
77866;SDS011;67271;59.120;37.970;2023-10-13T07:05:40;11.43;;;4.18;;
77866;SDS011;67271;59.120;37.970;2023-10-13T07:08:09;17.92;;;6.80;;
77866;SDS011;67271;59.120;37.970;2023-10-13T07:10:39;19.60;;;6.85;;
77866;SDS011;67271;59.120;37.970;2023-10-13T07:13:30;22.27;;;8.65;;
77866;SDS011;67271;59.120;37.970;2023-10-13T07:16:02;36.67;;;14.70;;
77866;SDS011;67271;59.120;37.970;2023-10-13T07:18:37;29.45;;;15.52;;
77866;SDS011;67271;59.120;37.970;2023-10-13T07:21:15;32.97;;;12.32;;
77866;SDS011;67271;59.120;37.970;2023-10-13T07:23:41;24.85;;;13.57;;
77866;SDS011;67271;59.120;37.970;2023-10-13T07:26:15;12.57;;;6.18;;
77866;SDS011;67271;59.120;37.970;2023-10-13T07:28:40;25.10;;;7.78;;
77866;SDS011;67271;59.120;37.970;2023-10-13T07:31:13;8.50;;;6.57;;
77866;SDS011;67271;59.120;37.970;2023-10-13T07:33:42;19.13;;;5.50;;
77866;SDS011;67271;59.120;37.970;2023-10-13T07:36:08;9.40;;;3.80;;
77866;SDS011;67271;59.120;37.970;2023-10-13T07:38:49;14.02;;;3.85;;
77866;SDS011;67271;59.120;37.970;2023-10-13T07:41:25;25.17;;;4.72;;
77866;SDS011;67271;59.120;37.970;2023-10-13T07:43:55;14.10;;;4.50;;
77866;SDS011;67271;59.120;37.970;2023-10-13T07:46:23;28.67;;;7.88;;
77866;SDS011;67271;59.120;37.970;2023-10-13T07:48:56;6.18;;;2.17;;
77866;SDS011;67271;59.120;37.970;2023-10-13T07:51:34;8.43;;;2.28;;
77866;SDS011;67271;59.120;37.970;2023-10-13T07:54:13;7.47;;;1.80;;
77866;SDS011;67271;59.120;37.970;2023-10-13T07:56:47;8.80;;;2.13;;
77866;SDS011;67271;59.120;37.970;2023-10-13T07:59:13;7.85;;;1.92;;
77866;SDS011;67271;59.120;37.970;2023-10-13T08:01:42;5.28;;;0.93;;
77866;SDS011;67271;59.120;37.970;2023-10-13T08:04:08;5.78;;;0.98;;
77866;SDS011;67271;59.120;37.970;2023-10-13T08:06:35;3.20;;;1.60;;
77866;SDS011;67271;59.120;37.970;2023-10-13T08:09:02;4.63;;;0.77;;
77866;SDS011;67271;59.120;37.970;2023-10-13T08:11:35;0.57;;;0.40;;
77866;SDS011;67271;59.120;37.970;2023-10-13T08:14:03;0.98;;;0.80;;
77866;SDS011;67271;59.120;37.970;2023-10-13T08:16:37;1.55;;;0.45;;
77866;SDS011;67271;59.120;37.970;2023-10-13T08:19:13;1.85;;;0.98;;
77866;SDS011;67271;59.120;37.970;2023-10-13T08:21:43;1.92;;;1.38;;
77866;SDS011;67271;59.120;37.970;2023-10-13T08:24:23;2.03;;;1.30;;
77866;SDS011;67271;59.120;37.970;2023-10-13T08:27:15;0.80;;;0.65;;
77866;SDS011;67271;59.120;37.970;2023-10-13T08:30:02;1.95;;;1.13;;
77866;SDS011;67271;59.120;37.970;2023-10-13T08:33:07;1.88;;;1.55;;
77866;SDS011;67271;59.120;37.970;2023-10-13T08:35:43;3.67;;;0.90;;
77866;SDS011;67271;59.120;37.970;2023-10-13T08:38:28;5.00;;;1.15;;
77866;SDS011;67271;59.120;37.970;2023-10-13T08:40:57;2.42;;;1.92;;
77866;SDS011;67271;59.120;37.970;2023-10-13T08:43:42;1.10;;;1.00;;
77866;SDS011;67271;59.120;37.970;2023-10-13T08:46:18;1.63;;;0.95;;
77866;SDS011;67271;59.120;37.970;2023-10-13T08:48:56;1.35;;;0.85;;
77866;SDS011;67271;59.120;37.970;2023-10-13T08:51:41;2.20;;;1.20;;
77866;SDS011;67271;59.120;37.970;2023-10-13T08:54:13;1.88;;;0.98;;
77866;SDS011;67271;59.120;37.970;2023-10-13T08:56:59;1.85;;;1.10;;
77866;SDS011;67271;59.120;37.970;2023-10-13T09:02:20;2.30;;;1.20;;
77866;SDS011;67271;59.120;37.970;2023-10-13T09:04:48;1.58;;;1.23;;
77866;SDS011;67271;59.120;37.970;2023-10-13T09:07:25;1.20;;;0.73;;
77866;SDS011;67271;59.120;37.970;2023-10-13T09:09:51;2.95;;;1.10;;
77866;SDS011;67271;59.120;37.970;2023-10-13T09:14:56;1.88;;;1.10;;
77866;SDS011;67271;59.120;37.970;2023-10-13T09:17:23;2.38;;;0.82;;
77866;SDS011;67271;59.120;37.970;2023-10-13T09:20:08;1.75;;;0.82;;
77866;SDS011;67271;59.120;37.970;2023-10-13T09:22:58;3.00;;;1.13;;
77866;SDS011;67271;59.120;37.970;2023-10-13T09:25:27;1.35;;;1.02;;
77866;SDS011;67271;59.120;37.970;2023-10-13T09:27:59;5.93;;;1.65;;
77866;SDS011;67271;59.120;37.970;2023-10-13T09:30:26;3.13;;;1.40;;
77866;SDS011;67271;59.120;37.970;2023-10-13T09:33:03;2.42;;;1.38;;
77866;SDS011;67271;59.120;37.970;2023-10-13T09:35:31;4.50;;;1.55;;
77866;SDS011;67271;59.120;37.970;2023-10-13T09:38:02;2.95;;;1.27;;
77866;SDS011;67271;59.120;37.970;2023-10-13T09:40:29;3.72;;;1.55;;
77866;SDS011;67271;59.120;37.970;2023-10-13T09:43:03;3.40;;;1.50;;
77866;SDS011;67271;59.120;37.970;2023-10-13T09:45:40;12.07;;;1.10;;
77866;SDS011;67271;59.120;37.970;2023-10-13T09:48:37;4.30;;;1.20;;
77866;SDS011;67271;59.120;37.970;2023-10-13T09:51:12;3.30;;;0.68;;
77866;SDS011;67271;59.120;37.970;2023-10-13T09:53:43;3.47;;;1.52;;
77866;SDS011;67271;59.120;37.970;2023-10-13T09:56:24;5.60;;;1.40;;
77866;SDS011;67271;59.120;37.970;2023-10-13T09:59:02;1.23;;;1.08;;
77866;SDS011;67271;59.120;37.970;2023-10-13T10:01:40;8.70;;;2.10;;
77866;SDS011;67271;59.120;37.970;2023-10-13T10:04:17;5.22;;;1.88;;
77866;SDS011;67271;59.120;37.970;2023-10-13T10:06:54;9.18;;;1.95;;
77866;SDS011;67271;59.120;37.970;2023-10-13T10:09:28;14.55;;;2.13;;
77866;SDS011;67271;59.120;37.970;2023-10-13T10:17:38;6.57;;;1.42;;
77866;SDS011;67271;59.120;37.970;2023-10-13T10:20:08;5.43;;;1.88;;
77866;SDS011;67271;59.120;37.970;2023-10-13T10:23:00;10.93;;;2.42;;
77866;SDS011;67271;59.120;37.970;2023-10-13T10:25:29;9.88;;;2.00;;
77866;SDS011;67271;59.120;37.970;2023-10-13T10:28:09;6.20;;;2.67;;
77866;SDS011;67271;59.120;37.970;2023-10-13T10:30:37;7.40;;;1.52;;
77866;SDS011;67271;59.120;37.970;2023-10-13T10:33:08;4.95;;;1.83;;
77866;SDS011;67271;59.120;37.970;2023-10-13T10:35:39;8.15;;;1.65;;
77866;SDS011;67271;59.120;37.970;2023-10-13T10:38:13;3.10;;;1.55;;
77866;SDS011;67271;59.120;37.970;2023-10-13T10:43:35;4.70;;;1.95;;
77866;SDS011;67271;59.120;37.970;2023-10-13T10:48:42;5.15;;;1.48;;
77866;SDS011;67271;59.120;37.970;2023-10-13T10:51:09;6.35;;;1.65;;
77866;SDS011;67271;59.120;37.970;2023-10-13T10:53:49;3.70;;;2.13;;
77866;SDS011;67271;59.120;37.970;2023-10-13T10:56:22;6.55;;;2.15;;
77866;SDS011;67271;59.120;37.970;2023-10-13T10:58:58;4.70;;;2.60;;
77866;SDS011;67271;59.120;37.970;2023-10-13T11:01:30;8.98;;;2.40;;
77866;SDS011;67271;59.120;37.970;2023-10-13T11:04:06;3.13;;;1.67;;
77866;SDS011;67271;59.120;37.970;2023-10-13T11:06:36;3.42;;;2.10;;
77866;SDS011;67271;59.120;37.970;2023-10-13T11:09:11;6.63;;;1.80;;
77866;SDS011;67271;59.120;37.970;2023-10-13T11:12:17;5.88;;;1.77;;
77866;SDS011;67271;59.120;37.970;2023-10-13T11:15:04;1.30;;;0.93;;
77866;SDS011;67271;59.120;37.970;2023-10-13T11:17:50;4.45;;;2.35;;
77866;SDS011;67271;59.120;37.970;2023-10-13T11:20:20;1.58;;;1.25;;
77866;SDS011;67271;59.120;37.970;2023-10-13T11:22:59;2.88;;;1.30;;
77866;SDS011;67271;59.120;37.970;2023-10-13T11:25:26;5.13;;;1.90;;
77866;SDS011;67271;59.120;37.970;2023-10-13T11:27:56;7.25;;;2.10;;
77866;SDS011;67271;59.120;37.970;2023-10-13T11:30:31;7.63;;;1.70;;
77866;SDS011;67271;59.120;37.970;2023-10-13T11:33:04;5.60;;;2.42;;
77866;SDS011;67271;59.120;37.970;2023-10-13T11:35:33;6.50;;;2.90;;
77866;SDS011;67271;59.120;37.970;2023-10-13T11:38:25;7.18;;;2.53;;
77866;SDS011;67271;59.120;37.970;2023-10-13T11:43:44;4.57;;;2.13;;
77866;SDS011;67271;59.120;37.970;2023-10-13T11:49:04;4.97;;;1.80;;
77866;SDS011;67271;59.120;37.970;2023-10-13T11:51:44;7.75;;;2.35;;
77866;SDS011;67271;59.120;37.970;2023-10-13T11:54:12;11.00;;;2.53;;
77866;SDS011;67271;59.120;37.970;2023-10-13T11:56:45;5.50;;;1.73;;
77866;SDS011;67271;59.120;37.970;2023-10-13T11:59:12;12.70;;;2.63;;
77866;SDS011;67271;59.120;37.970;2023-10-13T12:01:46;11.82;;;3.40;;
77866;SDS011;67271;59.120;37.970;2023-10-13T12:04:31;5.72;;;2.13;;
77866;SDS011;67271;59.120;37.970;2023-10-13T12:07:20;7.70;;;1.98;;
77866;SDS011;67271;59.120;37.970;2023-10-13T12:09:52;6.97;;;2.60;;
77866;SDS011;67271;59.120;37.970;2023-10-13T12:12:25;3.47;;;1.85;;
77866;SDS011;67271;59.120;37.970;2023-10-13T12:14:53;4.55;;;1.50;;
77866;SDS011;67271;59.120;37.970;2023-10-13T12:17:23;5.75;;;1.88;;
77866;SDS011;67271;59.120;37.970;2023-10-13T12:20:02;3.25;;;2.08;;
77866;SDS011;67271;59.120;37.970;2023-10-13T12:22:31;5.10;;;1.88;;
77866;SDS011;67271;59.120;37.970;2023-10-13T12:25:20;8.45;;;2.22;;
77866;SDS011;67271;59.120;37.970;2023-10-13T12:27:58;2.85;;;1.48;;
77866;SDS011;67271;59.120;37.970;2023-10-13T12:30:38;5.80;;;2.25;;
77866;SDS011;67271;59.120;37.970;2023-10-13T12:33:14;5.13;;;2.47;;
77866;SDS011;67271;59.120;37.970;2023-10-13T12:35:42;4.93;;;2.28;;
77866;SDS011;67271;59.120;37.970;2023-10-13T12:38:31;4.45;;;2.00;;
77866;SDS011;67271;59.120;37.970;2023-10-13T12:41:12;4.63;;;1.90;;
77866;SDS011;67271;59.120;37.970;2023-10-13T12:44:04;5.95;;;1.75;;
77866;SDS011;67271;59.120;37.970;2023-10-13T12:46:49;7.60;;;2.38;;
77866;SDS011;67271;59.120;37.970;2023-10-13T12:49:33;9.55;;;2.90;;
77866;SDS011;67271;59.120;37.970;2023-10-13T12:52:08;8.60;;;3.13;;
77866;SDS011;67271;59.120;37.970;2023-10-13T12:54:53;11.93;;;3.38;;
77866;SDS011;67271;59.120;37.970;2023-10-13T12:57:22;10.13;;;3.28;;
77866;SDS011;67271;59.120;37.970;2023-10-13T12:59:49;5.28;;;1.98;;
77866;SDS011;67271;59.120;37.970;2023-10-13T13:02:19;5.05;;;2.15;;
77866;SDS011;67271;59.120;37.970;2023-10-13T13:04:52;7.28;;;2.40;;
77866;SDS011;67271;59.120;37.970;2023-10-13T13:07:40;8.23;;;1.73;;
77866;SDS011;67271;59.120;37.970;2023-10-13T13:10:15;3.22;;;1.17;;
77866;SDS011;67271;59.120;37.970;2023-10-13T13:12:41;4.63;;;1.90;;
77866;SDS011;67271;59.120;37.970;2023-10-13T13:15:07;6.82;;;3.38;;
77866;SDS011;67271;59.120;37.970;2023-10-13T13:17:37;7.80;;;1.60;;
77866;SDS011;67271;59.120;37.970;2023-10-13T13:20:05;4.07;;;1.90;;
77866;SDS011;67271;59.120;37.970;2023-10-13T13:22:39;5.47;;;1.75;;
77866;SDS011;67271;59.120;37.970;2023-10-13T13:25:06;4.68;;;2.40;;
77866;SDS011;67271;59.120;37.970;2023-10-13T13:27:36;2.75;;;1.90;;
77866;SDS011;67271;59.120;37.970;2023-10-13T13:30:12;4.65;;;2.20;;
77866;SDS011;67271;59.120;37.970;2023-10-13T13:32:38;4.32;;;1.40;;
77866;SDS011;67271;59.120;37.970;2023-10-13T13:35:06;4.90;;;1.85;;
77866;SDS011;67271;59.120;37.970;2023-10-13T13:37:34;6.75;;;2.30;;
77866;SDS011;67271;59.120;37.970;2023-10-13T13:40:05;3.28;;;2.13;;
77866;SDS011;67271;59.120;37.970;2023-10-13T13:42:41;5.63;;;2.60;;
77866;SDS011;67271;59.120;37.970;2023-10-13T13:45:11;4.22;;;2.17;;
77866;SDS011;67271;59.120;37.970;2023-10-13T13:47:48;4.60;;;2.03;;
77866;SDS011;67271;59.120;37.970;2023-10-13T13:50:25;9.82;;;2.50;;
77866;SDS011;67271;59.120;37.970;2023-10-13T13:52:57;7.32;;;2.47;;
77866;SDS011;67271;59.120;37.970;2023-10-13T13:55:23;3.28;;;1.77;;
77866;SDS011;67271;59.120;37.970;2023-10-13T13:57:51;6.10;;;1.60;;
77866;SDS011;67271;59.120;37.970;2023-10-13T14:00:18;9.35;;;2.17;;
77866;SDS011;67271;59.120;37.970;2023-10-13T14:03:06;3.83;;;1.48;;
77866;SDS011;67271;59.120;37.970;2023-10-13T14:05:42;9.38;;;1.77;;
77866;SDS011;67271;59.120;37.970;2023-10-13T14:08:08;4.32;;;2.03;;
77866;SDS011;67271;59.120;37.970;2023-10-13T14:10:38;6.95;;;1.70;;
77866;SDS011;67271;59.120;37.970;2023-10-13T14:13:22;4.63;;;1.60;;
77866;SDS011;67271;59.120;37.970;2023-10-13T14:16:08;4.32;;;1.60;;
77866;SDS011;67271;59.120;37.970;2023-10-13T14:18:42;12.10;;;1.70;;
77866;SDS011;67271;59.120;37.970;2023-10-13T14:21:10;10.05;;;1.95;;
77866;SDS011;67271;59.120;37.970;2023-10-13T14:23:36;1.60;;;1.05;;
77866;SDS011;67271;59.120;37.970;2023-10-13T14:26:02;6.22;;;1.65;;
77866;SDS011;67271;59.120;37.970;2023-10-13T14:28:28;5.15;;;1.38;;
77866;SDS011;67271;59.120;37.970;2023-10-13T14:31:07;4.85;;;1.65;;
77866;SDS011;67271;59.120;37.970;2023-10-13T14:33:40;10.65;;;1.52;;
77866;SDS011;67271;59.120;37.970;2023-10-13T14:36:06;6.85;;;1.55;;
77866;SDS011;67271;59.120;37.970;2023-10-13T14:38:35;5.65;;;2.25;;
77866;SDS011;67271;59.120;37.970;2023-10-13T14:41:01;4.15;;;1.67;;
77866;SDS011;67271;59.120;37.970;2023-10-13T14:43:27;10.18;;;2.45;;
77866;SDS011;67271;59.120;37.970;2023-10-13T14:45:53;9.93;;;2.33;;
77866;SDS011;67271;59.120;37.970;2023-10-13T14:48:19;10.85;;;3.00;;
77866;SDS011;67271;59.120;37.970;2023-10-13T14:50:45;7.97;;;1.52;;
77866;SDS011;67271;59.120;37.970;2023-10-13T14:53:11;6.68;;;1.73;;
77866;SDS011;67271;59.120;37.970;2023-10-13T14:55:37;4.90;;;1.67;;
77866;SDS011;67271;59.120;37.970;2023-10-13T14:58:05;3.05;;;1.17;;
77866;SDS011;67271;59.120;37.970;2023-10-13T15:00:33;6.05;;;1.25;;
77866;SDS011;67271;59.120;37.970;2023-10-13T15:02:59;6.20;;;2.38;;
77866;SDS011;67271;59.120;37.970;2023-10-13T15:05:31;7.53;;;2.50;;
77866;SDS011;67271;59.120;37.970;2023-10-13T15:08:01;6.65;;;1.40;;
77866;SDS011;67271;59.120;37.970;2023-10-13T15:10:28;3.67;;;1.38;;
77866;SDS011;67271;59.120;37.970;2023-10-13T15:12:54;3.53;;;1.92;;
77866;SDS011;67271;59.120;37.970;2023-10-13T15:15:20;7.65;;;2.00;;
77866;SDS011;67271;59.120;37.970;2023-10-13T15:17:46;11.52;;;1.70;;
77866;SDS011;67271;59.120;37.970;2023-10-13T15:20:13;6.03;;;2.13;;
77866;SDS011;67271;59.120;37.970;2023-10-13T15:22:42;7.03;;;1.42;;
77866;SDS011;67271;59.120;37.970;2023-10-13T15:25:09;4.80;;;1.85;;
77866;SDS011;67271;59.120;37.970;2023-10-13T15:27:45;6.63;;;1.60;;
77866;SDS011;67271;59.120;37.970;2023-10-13T15:30:16;4.70;;;1.95;;
77866;SDS011;67271;59.120;37.970;2023-10-13T15:33:08;9.65;;;1.80;;
77866;SDS011;67271;59.120;37.970;2023-10-13T15:35:38;8.27;;;2.17;;
77866;SDS011;67271;59.120;37.970;2023-10-13T15:38:08;3.15;;;1.77;;
77866;SDS011;67271;59.120;37.970;2023-10-13T15:40:44;5.35;;;1.80;;
77866;SDS011;67271;59.120;37.970;2023-10-13T15:43:10;5.20;;;1.60;;
77866;SDS011;67271;59.120;37.970;2023-10-13T15:45:37;4.70;;;1.50;;
77866;SDS011;67271;59.120;37.970;2023-10-13T15:48:08;3.67;;;0.88;;